Hlavní strana
METAR-TAF:

METAR-TAF

Letiště :

Terst, Itálie

zeměpisná šířka: 45-39N, zeměpisná délka: 013-45E, výška: 8 m

Aktuální stav počasí

Zpráva byla vytvořena před 10 hodinami a 48 minutami, v 17:55 UTC
Bezvětří
Teplota 8°C
Vlhkost vzduchu 87%
Tlak 1019 hPa
Viditelnost: 6000 m
Polojasno ve výšce 3000 ft

METAR: LIVT 171755Z 00000KT 6000 SCT030 08/06 Q1019 RMK OVC SCT060 QUK / QUL / VIS MAR 6 KM VIS MIN 6000

Čas: 05:43 (04:43 UTC)


TAF: chybějící

Stav a předpovědi počasí z více než 4 000 letišť (zprávy METAR a TAF).

Červené a žluté tečky na mapě představují dostupné meteorologické stanice.

Když kurzor umístíte na tečku, zobrazí se název stanice.

Pak kliknutím zobrazíte stav a předpověď počasí.

Chcete-li změnit mapu, kliknutím na zelené tlačítko se znaménkem +mapu přiblížíte, kliknutím na zelené tlačítko se znaménkem – mapu oddálíte a kliknutím na zelené šipky přejdete na sousední mapy.


METAR-TAF: